Ulsteinvik  Ulsteinvik


Beaufortskalaen  Beaufortskalaen


Clouds and precipitation  Clouds and precipitation


Nedbørsradar more information rain snow radar


Ingen spesiell oppmerksomhet om været er nødvendig.    Det er ingen advarsler

Nære METAR rapporter

   
ENAL - Ålesund
oppdatert: 16-10-2019 04:50
Klart  
Klart  
   Vind: ØNØ 6.7 m/s
Vind: ØNØ 6.7 m/s
Temperatur: 8°C
Wind Chill: 4°C
Duggpunkt: 5°C
Fuktighet: 82%
Barometer: 1004 hPa
Skyer: Klart
Sikt: More than 10 km
Skydetaljer: Klart
ENAL 160250Z AUTO 06013KT 9999 NCD 08/05 Q1004
ENOV - Ørsta
oppdatert: 15-10-2019 22:50
Ikkje oppdatert
Klart  
Klart  
   Vind: Stille
Vind: Stille
Temperatur: 1°C
Duggpunkt: 1°C
Fuktighet: 100%
Barometer: 1006 hPa
Sikt: More than 10 km
Skydetaljer: Klart
ENOV 152050Z 00000KT CAVOK 01/01 Q1006 RMK WIND 2175FT 10010KT
ENML - Tafjorden
oppdatert: 16-10-2019 04:50
Klart  
Klart  
   Vind: ØNØ 5.7 m/s
Vind: ØNØ 5.7 m/s
Temperatur: 5°C
Wind Chill: 1°C
Duggpunkt: 1°C
Fuktighet: 76%
Barometer: 1005 hPa
Skyer: Klart
Sikt: 10 km
Skydetaljer: Klart
ENML 160250Z AUTO 07011KT 9999NDV NCD 05/01 Q1005
ENML - Molde
oppdatert: 16-10-2019 04:50
Klart  
Klart  
   Vind: ØNØ 5.7 m/s
Vind: ØNØ 5.7 m/s
Temperatur: 5°C
Wind Chill: 1°C
Duggpunkt: 1°C
Fuktighet: 76%
Barometer: 1005 hPa
Skyer: Klart
Sikt: 10 km
Skydetaljer: Klart
ENML 160250Z AUTO 07011KT 9999NDV NCD 05/01 Q1005
ENFL - Florø
oppdatert: 16-10-2019 04:50
Lett regn, Overskyet  
Lett regn, Overskyet  
   Vind: ØSØ 5.1 m/s
Vind: ØSØ 5.1 m/s
Temperatur: 12°C
Duggpunkt: 5°C
Fuktighet: 63%
Barometer: 1004 hPa
Skyer: Overskyet
Sikt: 10 km
Skydetaljer: For det meste skyet 1188.7 m,
Overskyet 1645.9 m
ENFL 160250Z AUTO 12010KT 9999NDV -RA BKN039/// OVC054/// 12/05 Q1004
ENVA - Trondheim
oppdatert: 16-10-2019 04:20
Klart  
Klart  
   Vind: ØSØ 4.1 m/s
Vind: ØSØ 4.1 m/s
Temperatur: 3°C
Wind Chill: -1°C
Duggpunkt: 0°C
Fuktighet: 81%
Barometer: 1011 hPa
Sikt: More than 10 km
Skydetaljer: Klart
ENVA 160220Z 12008KT CAVOK 03/M00 Q1011 RMK WIND 670FT 10010KT
ENBR - Bergen
oppdatert: 16-10-2019 04:50
Regn i nærheten, For det meste skyet  
Regn i nærheten, For det meste skyet  
   Vind: ØNØ 1.5 m/s
Vind: ØNØ 1.5 m/s
Temperatur: 9°C
Wind Chill: 8°C
Duggpunkt: 8°C
Fuktighet: 94%
Barometer: 1002 hPa
Skyer: For det meste skyet
Sikt: More than 10 km
Skydetaljer: få skyer 304.8 m,
For det meste skyet 1066.8 m
ENBR 160250Z 06003KT 9999 VCSH FEW010 BKN035 09/08 Q1002 RMK WIND 1200FT 12016KT
ENZV - Stavanger
oppdatert: 16-10-2019 04:50
Overskyet  
Overskyet  
   Vind: SØ 6.7 m/s
Vind: SØ 6.7 m/s
Temperatur: 12°C
Duggpunkt: 9°C
Fuktighet: 82%
Barometer: 1003 hPa
Skyer: Overskyet
Sikt: More than 10 km
Skydetaljer: For det meste skyet 518.2 m,
Overskyet 701 m
ENZV 160250Z 14013KT 9999 BKN017 OVC023 12/09 Q1003
ENGM - Oslo
oppdatert: 16-10-2019 04:50
Lett yr, For det meste skyet  
Lett yr, For det meste skyet  
   Vind: Nord 5.1 m/s
Vind: Nord 5.1 m/s
Temperatur: 4°C
Wind Chill: 0°C
Duggpunkt: 4°C
Fuktighet: 100%
Barometer: 1008 hPa
Skyer: For det meste skyet
Sikt: 6 km
Skydetaljer: Delvis Skyet 152.4 m,
For det meste skyet 365.8 m
ENGM 160250Z 01010KT 6000 -DZ SCT005 BKN012 04/04 Q1008
ESSA - Stockholm
oppdatert: 16-10-2019 04:50
Dis, Overskyet  
Dis, Overskyet  
   Vind: ØNØ 4.6 m/s
Vind: ØNØ 4.6 m/s
Temperatur: 8°C
Wind Chill: 5°C
Duggpunkt: 8°C
Fuktighet: 100%
Barometer: 1009 hPa
Skyer: Overskyet
Sikt: 5 km
Skydetaljer: Overskyet 91.4 m
ESSA 160250Z 07009KT 5000 BR OVC003 08/08 Q1009 TEMPO 5000 BKN005
EKCH - København
oppdatert: 16-10-2019 04:50
Tåke, Overskyet  
Tåke, Overskyet  
   Vind: NNØ 3.6 m/s
Vind: NNØ 3.6 m/s
Temperatur: 11°C
Duggpunkt: 11°C
Fuktighet: 100%
Barometer: 1005 hPa
Skyer: Overskyet
Sikt: 0.5 km
Skydetaljer: Overskyet 61 m
EKCH 160250Z 03007KT 0500 R22L/P1500D R04L/P1500D R12/P1500U FG VV002 11/11 Q1005 NOSIG
ENHV - Nordkapp
oppdatert: 15-10-2019 22:50
Ikkje oppdatert
Spredte Regnbyger, Regn, Snø, For det meste skyet  
Spredte Regnbyger, Regn, Snø, For det meste skyet  
   Vind: SSØ 2.6 m/s
Vind: SSØ 2.6 m/s
Temperatur: 2°C
Wind Chill: -1°C
Duggpunkt: 0°C
Fuktighet: 87%
Barometer: 1018 hPa
Skyer: For det meste skyet
Sikt: More than 10 km
Skydetaljer: Delvis Skyet 457.2 m,
For det meste skyet 1463 m
ENHV 152050Z 16005KT 9999 -SHRASN SCT015 BKN048 02/M00 Q1018
ENSB - Svalbard
oppdatert: 16-10-2019 04:50
få skyer  
få skyer  
   Vind: ØSØ 6.2 m/s
Vind: ØSØ 6.2 m/s
Temperatur: -6°C
Wind Chill: -13°C
Duggpunkt: -9°C
Fuktighet: 80%
Barometer: 1017 hPa
Skyer: få skyer
Sikt: More than 10 km
Skydetaljer: få skyer 853.4 m
ENSB 160250Z 12012KT 9999 FEW028 M06/M09 Q1017 RMK WIND 1400FT 19005KT
NZSP - Sørpolen
oppdatert: 16-10-2019 01:50
Ikkje oppdatert
Klart  
Klart  
   Vind: Øst 3.1 m/s
Vind: Øst 3.1 m/s
Temperatur: -59°C
Wind Chill: -74°C
Barometer: 949.5 hPa
Skyer: Klart
Sikt: More than 10 km
Skydetaljer: Klart
NZSP 152350Z 09006KT 9999 SKC M59/ A2804 RMK CLN AIR 09007KT SDG/HDG ALL WNDS GRID SDG/HDG
 

Script utviklet av  Saratoga-weather.org Tilrettelagt for malen av  Weerstation Leuven

Utstyr vi bruker:

Værstsjon
Davis VP2+ 24/H Fars, Online-Ups, 4G Backup.

Værprogram
Weather Display

Ekstra utstyr
Custom builds pcs

Provider
Hosted By Pro Isp

Davis VP2+ 24/H Fars, Online-Ups, 4G Backup.

Weather Display

Custom builds pcs

Hosted By Pro Isp